createdAt,value
2022-12-19T00:00:14.749Z,637.21
2022-12-19T00:01:26.856Z,626.09
2022-12-19T00:02:32.733Z,618.81
2022-12-19T00:03:39.463Z,612.15
2022-12-19T00:04:42.853Z,605.47
2022-12-19T00:05:48.876Z,609.83
2022-12-19T00:06:52.165Z,603.90
2022-12-19T00:07:59.034Z,601.68
2022-12-19T00:09:06.853Z,604.25
2022-12-19T00:10:13.534Z,613.05
2022-12-19T00:11:18.952Z,626.44
2022-12-19T00:12:24.804Z,619.43
2022-12-19T00:13:35.288Z,597.24
2022-12-19T00:14:50.735Z,603.81
2022-12-19T00:15:54.545Z,616.86
2022-12-19T00:17:00.431Z,616.89
2022-12-19T00:18:05.677Z,626.53
2022-12-19T00:19:15.784Z,638.53
2022-12-19T00:20:19.471Z,620.26
2022-12-19T00:21:28.414Z,610.38
2022-12-19T00:22:31.757Z,637.08
2022-12-19T00:23:38.839Z,635.06
2022-12-19T00:24:42.915Z,635.37
2022-12-19T00:25:48.847Z,628.11
2022-12-19T00:26:52.131Z,642.30
2022-12-19T00:27:58.639Z,635.75
2022-12-19T00:29:11.164Z,642.46
2022-12-19T00:30:24.115Z,652.00
2022-12-19T00:31:31.630Z,673.45
2022-12-19T00:32:37.764Z,658.62
2022-12-19T00:33:43.401Z,643.19
2022-12-19T00:34:51.000Z,658.16
2022-12-19T00:35:59.098Z,655.14
2022-12-19T00:37:05.011Z,668.53
2022-12-19T00:38:08.417Z,665.87
2022-12-19T00:39:14.698Z,669.31
2022-12-19T00:40:18.427Z,680.54
2022-12-19T00:41:28.398Z,676.32
2022-12-19T00:42:32.338Z,670.02
2022-12-19T00:43:38.532Z,678.76
2022-12-19T00:44:42.002Z,659.64
2022-12-19T00:45:50.666Z,674.74
2022-12-19T00:46:54.907Z,691.88
2022-12-19T00:48:00.801Z,663.89
2022-12-19T00:49:06.535Z,645.66
2022-12-19T00:50:13.801Z,650.12
2022-12-19T00:51:21.335Z,665.55
2022-12-19T00:52:28.092Z,657.59
2022-12-19T00:53:34.827Z,661.53
2022-12-19T00:54:42.096Z,658.86
2022-12-19T00:55:45.337Z,641.68
2022-12-19T00:56:51.351Z,633.32
2022-12-19T00:57:55.550Z,633.53
2022-12-19T00:59:05.884Z,629.03
2022-12-19T01:00:12.099Z,629.78
2022-12-19T01:01:24.652Z,627.15
2022-12-19T01:02:30.761Z,621.95
2022-12-19T01:03:35.239Z,626.89
2022-12-19T01:04:41.962Z,629.32
2022-12-19T01:05:51.027Z,625.94
2022-12-19T01:07:01.758Z,635.05
2022-12-19T01:08:09.208Z,642.74
2022-12-19T01:09:16.514Z,631.24
2022-12-19T01:10:19.966Z,621.75
2022-12-19T01:11:46.694Z,618.65
2022-12-19T01:12:49.973Z,603.35
2022-12-19T01:13:54.684Z,611.25
2022-12-19T01:15:04.899Z,622.65
2022-12-19T01:16:15.168Z,629.48
2022-12-19T01:17:21.157Z,606.29
2022-12-19T01:18:27.096Z,603.19
2022-12-19T01:19:30.566Z,599.19
2022-12-19T01:20:37.287Z,612.07
2022-12-19T01:21:41.033Z,599.47
2022-12-19T01:22:47.877Z,598.61
2022-12-19T01:23:51.187Z,608.34
2022-12-19T01:24:57.091Z,601.17
2022-12-19T01:26:01.357Z,603.07
2022-12-19T01:27:07.494Z,607.01
2022-12-19T01:28:18.261Z,608.65
2022-12-19T01:29:22.275Z,613.07
2022-12-19T01:30:29.256Z,614.70
2022-12-19T01:31:35.108Z,601.10
2022-12-19T01:32:44.706Z,617.96
2022-12-19T01:33:48.120Z,604.86
2022-12-19T01:34:56.404Z,609.84
2022-12-19T01:36:02.033Z,595.61
2022-12-19T01:37:08.877Z,608.68
2022-12-19T01:38:15.615Z,600.60
2022-12-19T01:39:21.525Z,605.18
2022-12-19T01:40:30.247Z,586.27
2022-12-19T01:41:33.869Z,588.56
2022-12-19T01:42:41.210Z,594.68
2022-12-19T01:44:02.075Z,600.63
2022-12-19T01:45:34.077Z,597.74
2022-12-19T01:46:47.649Z,609.67
2022-12-19T01:48:07.739Z,592.94
2022-12-19T01:49:25.278Z,598.52
2022-12-19T01:50:38.081Z,596.19
2022-12-19T01:51:54.375Z,603.35
2022-12-19T01:53:01.421Z,598.41
2022-12-19T01:54:15.535Z,619.31
2022-12-19T01:55:22.082Z,607.84
2022-12-19T01:56:37.429Z,614.73
2022-12-19T01:57:40.876Z,612.42
2022-12-19T01:58:49.000Z,624.97
2022-12-19T02:00:00.198Z,612.41
2022-12-19T02:01:06.666Z,636.50
2022-12-19T02:02:19.452Z,629.79
2022-12-19T02:03:32.709Z,610.88
2022-12-19T02:04:37.485Z,630.22
2022-12-19T02:05:44.617Z,621.85
2022-12-19T02:06:56.484Z,637.77
2022-12-19T02:08:05.985Z,647.12
2022-12-19T02:09:10.197Z,636.11
2022-12-19T02:10:17.025Z,636.95
2022-12-19T02:11:20.504Z,646.59
2022-12-19T02:12:33.246Z,645.21
2022-12-19T02:13:36.835Z,659.71
2022-12-19T02:14:44.623Z,645.57
2022-12-19T02:16:05.927Z,676.90
2022-12-19T02:17:27.951Z,656.58
2022-12-19T02:18:52.181Z,660.57
2022-12-19T02:20:48.445Z,668.41
2022-12-19T02:22:12.712Z,671.73
2022-12-19T02:24:10.984Z,681.50
2022-12-19T02:26:03.655Z,666.27
2022-12-19T02:28:01.083Z,641.51
2022-12-19T02:29:43.997Z,652.04
2022-12-19T02:31:17.499Z,675.82
2022-12-19T02:32:36.302Z,644.31
2022-12-19T02:33:49.557Z,642.62
2022-12-19T02:35:11.279Z,653.73
2022-12-19T02:36:28.580Z,642.18
2022-12-19T02:37:44.831Z,636.04
2022-12-19T02:39:02.400Z,641.71
2022-12-19T02:40:18.550Z,644.72
2022-12-19T02:41:43.519Z,635.02
2022-12-19T02:43:00.968Z,631.63
2022-12-19T02:44:08.865Z,622.63
2022-12-19T02:45:28.337Z,623.02
2022-12-19T02:46:37.869Z,613.07
2022-12-19T02:47:43.396Z,616.87
2022-12-19T02:48:51.635Z,597.82
2022-12-19T02:49:55.084Z,606.64
2022-12-19T02:51:01.421Z,615.97
2022-12-19T02:52:13.303Z,602.88
2022-12-19T02:53:23.805Z,612.12
2022-12-19T02:54:33.031Z,602.81
2022-12-19T02:55:51.746Z,593.43
2022-12-19T02:57:09.174Z,599.44
2022-12-19T02:58:46.684Z,618.50
2022-12-19T03:00:06.768Z,601.99
2022-12-19T03:01:36.635Z,606.93
2022-12-19T03:03:01.183Z,593.15
2022-12-19T03:04:24.343Z,602.02
2022-12-19T03:05:45.662Z,592.97
2022-12-19T03:07:02.101Z,621.81
2022-12-19T03:08:23.964Z,604.98
2022-12-19T03:09:43.952Z,599.19
2022-12-19T03:11:00.758Z,586.09
2022-12-19T03:12:18.362Z,577.66
2022-12-19T03:13:30.584Z,580.51
2022-12-19T03:14:40.293Z,581.78
2022-12-19T03:15:45.448Z,587.42
2022-12-19T03:16:54.396Z,589.79
2022-12-19T03:18:02.883Z,596.96
2022-12-19T03:19:16.535Z,594.87
2022-12-19T03:20:37.353Z,584.99
2022-12-19T03:21:47.783Z,588.80
2022-12-19T03:22:51.866Z,569.50
2022-12-19T03:24:01.408Z,595.06
2022-12-19T03:25:05.608Z,592.29
2022-12-19T03:26:20.757Z,604.58
2022-12-19T03:27:34.285Z,599.63
2022-12-19T03:28:50.981Z,597.65
2022-12-19T03:30:06.849Z,590.08
2022-12-19T03:31:15.852Z,616.22
2022-12-19T03:32:25.601Z,603.04
2022-12-19T03:33:35.074Z,598.69
2022-12-19T03:34:50.910Z,595.55
2022-12-19T03:36:04.610Z,617.81
2022-12-19T03:37:20.351Z,602.58
2022-12-19T03:38:24.476Z,605.72
2022-12-19T03:39:35.202Z,601.26
2022-12-19T03:40:46.465Z,598.50
2022-12-19T03:42:07.867Z,615.83
2022-12-19T03:43:21.665Z,618.59
2022-12-19T03:44:34.849Z,613.07
2022-12-19T03:45:56.599Z,602.96
2022-12-19T03:47:15.120Z,601.15
2022-12-19T03:48:30.970Z,592.98
2022-12-19T03:49:38.253Z,606.35
2022-12-19T03:51:00.375Z,618.98
2022-12-19T03:52:24.855Z,616.91
2022-12-19T03:53:50.275Z,614.18
2022-12-19T03:55:06.326Z,612.96
2022-12-19T03:56:25.883Z,620.58
2022-12-19T03:57:40.203Z,622.98
2022-12-19T03:58:56.247Z,622.11
2022-12-19T04:00:08.166Z,627.75
2022-12-19T04:01:22.650Z,626.23
2022-12-19T04:02:29.365Z,623.01
2022-12-19T04:03:37.020Z,624.62
2022-12-19T04:04:53.677Z,603.00
2022-12-19T04:06:02.127Z,606.26
2022-12-19T04:07:12.019Z,619.69
2022-12-19T04:08:17.922Z,605.70
2022-12-19T04:09:27.431Z,604.74
2022-12-19T04:10:36.153Z,610.16
2022-12-19T04:11:52.588Z,613.22
2022-12-19T04:13:05.309Z,606.02
2022-12-19T04:14:20.124Z,601.19
2022-12-19T04:15:45.255Z,615.49
2022-12-19T04:16:59.820Z,619.35
2022-12-19T04:18:12.845Z,626.24
2022-12-19T04:19:29.614Z,616.43
2022-12-19T04:20:48.645Z,604.77
2022-12-19T04:22:05.000Z,626.80
2022-12-19T04:23:24.535Z,619.61
2022-12-19T04:24:36.647Z,622.80
2022-12-19T04:25:52.281Z,605.07
2022-12-19T04:27:02.564Z,633.81
2022-12-19T04:28:16.779Z,624.98
2022-12-19T04:29:21.570Z,629.34
2022-12-19T04:30:27.458Z,613.13
2022-12-19T04:31:32.666Z,635.11
2022-12-19T04:32:43.143Z,629.98
2022-12-19T04:33:46.725Z,650.33
2022-12-19T04:34:52.616Z,672.74
2022-12-19T04:35:58.857Z,684.56
2022-12-19T04:37:06.754Z,677.38
2022-12-19T04:38:10.230Z,700.29
2022-12-19T04:39:16.271Z,724.55
2022-12-19T04:40:19.713Z,714.78
2022-12-19T04:41:25.613Z,714.61
2022-12-19T04:42:29.856Z,771.71
2022-12-19T04:43:36.063Z,767.62
2022-12-19T04:44:39.367Z,729.04
2022-12-19T04:45:45.552Z,696.47
2022-12-19T04:46:49.370Z,689.74
2022-12-19T04:47:56.067Z,706.78
2022-12-19T04:48:59.390Z,707.42
2022-12-19T04:50:05.557Z,713.73
2022-12-19T04:51:11.477Z,718.04
2022-12-19T04:52:17.402Z,715.41
2022-12-19T04:53:21.524Z,735.31
2022-12-19T04:54:27.380Z,745.23
2022-12-19T04:55:30.927Z,753.31
2022-12-19T04:56:36.829Z,770.88
2022-12-19T04:57:40.078Z,763.95
2022-12-19T04:58:46.805Z,753.15
2022-12-19T04:59:50.444Z,753.58
2022-12-19T05:00:56.310Z,824.31
2022-12-19T05:02:00.735Z,858.22
2022-12-19T05:03:06.881Z,853.53
2022-12-19T05:04:11.193Z,849.18
2022-12-19T05:05:18.412Z,847.29
2022-12-19T05:06:24.459Z,817.16
2022-12-19T05:07:30.479Z,791.24
2022-12-19T05:08:34.461Z,788.61
2022-12-19T05:09:41.327Z,792.76
2022-12-19T05:10:44.593Z,799.38
2022-12-19T05:11:50.987Z,798.19
2022-12-19T05:12:55.580Z,845.07
2022-12-19T05:14:02.406Z,847.09
2022-12-19T05:15:08.848Z,786.43
2022-12-19T05:16:16.386Z,758.70
2022-12-19T05:17:19.743Z,745.50
2022-12-19T05:18:25.815Z,725.37
2022-12-19T05:19:32.315Z,712.82
2022-12-19T05:20:38.117Z,716.14
2022-12-19T05:21:46.867Z,731.61
2022-12-19T05:22:50.186Z,745.26
2022-12-19T05:23:56.104Z,756.22
2022-12-19T05:24:59.389Z,732.34
2022-12-19T05:26:08.795Z,721.68
2022-12-19T05:27:12.098Z,713.48
2022-12-19T05:28:19.697Z,726.91
2022-12-19T05:29:23.337Z,720.32
2022-12-19T05:30:29.250Z,733.22
2022-12-19T05:31:33.507Z,707.38
2022-12-19T05:32:39.444Z,713.96
2022-12-19T05:33:43.947Z,720.96
2022-12-19T05:34:50.004Z,728.72
2022-12-19T05:35:53.318Z,739.53
2022-12-19T05:37:03.754Z,740.92
2022-12-19T05:38:07.396Z,758.45
2022-12-19T05:39:13.772Z,754.29
2022-12-19T05:40:17.220Z,766.29
2022-12-19T05:41:25.638Z,790.00
2022-12-19T05:42:29.736Z,772.94
2022-12-19T05:43:35.675Z,748.30
2022-12-19T05:44:38.977Z,747.84
2022-12-19T05:45:44.996Z,760.59
2022-12-19T05:46:48.468Z,751.37
2022-12-19T05:47:59.966Z,746.81
2022-12-19T05:49:04.721Z,753.74
2022-12-19T05:50:12.884Z,785.62
2022-12-19T05:51:17.020Z,776.03
2022-12-19T05:52:25.609Z,768.17
2022-12-19T05:53:30.524Z,760.46
2022-12-19T05:54:36.563Z,755.18
2022-12-19T05:55:39.918Z,765.67
2022-12-19T05:56:45.924Z,763.12
2022-12-19T05:57:49.462Z,730.47
2022-12-19T05:58:56.216Z,710.94
2022-12-19T06:00:00.017Z,731.56
2022-12-19T06:01:07.560Z,749.60
2022-12-19T06:02:12.759Z,745.04
2022-12-19T06:03:18.894Z,732.60
2022-12-19T06:04:23.197Z,741.82
2022-12-19T06:05:29.137Z,707.97
2022-12-19T06:06:34.996Z,742.28
2022-12-19T06:07:42.565Z,730.08
2022-12-19T06:08:49.404Z,704.36
2022-12-19T06:09:53.574Z,714.28
2022-12-19T06:11:02.797Z,727.36
2022-12-19T06:12:07.197Z,717.54
2022-12-19T06:13:13.394Z,687.88
2022-12-19T06:14:19.650Z,687.75
2022-12-19T06:15:23.771Z,694.42
2022-12-19T06:16:29.764Z,689.66
2022-12-19T06:17:33.219Z,674.02
2022-12-19T06:18:42.990Z,661.94
2022-12-19T06:19:48.270Z,682.41
2022-12-19T06:21:01.569Z,688.29
2022-12-19T06:22:05.018Z,669.92
2022-12-19T06:23:13.592Z,664.32
2022-12-19T06:24:17.575Z,688.29
2022-12-19T06:25:25.822Z,691.37
2022-12-19T06:26:31.472Z,705.36
2022-12-19T06:27:37.817Z,700.14
2022-12-19T06:28:41.167Z,685.69
2022-12-19T06:29:47.383Z,710.06
2022-12-19T06:30:50.941Z,678.83
2022-12-19T06:31:57.812Z,678.85
2022-12-19T06:33:01.349Z,712.69
2022-12-19T06:34:07.563Z,705.91
2022-12-19T06:35:11.561Z,717.16
2022-12-19T06:36:25.445Z,731.09
2022-12-19T06:37:29.689Z,719.21
2022-12-19T06:38:38.879Z,753.84
2022-12-19T06:39:42.230Z,762.63
2022-12-19T06:41:01.261Z,803.95
2022-12-19T06:42:20.308Z,841.38
2022-12-19T06:43:29.565Z,850.90
2022-12-19T06:44:34.114Z,814.48
2022-12-19T06:45:40.149Z,840.15
2022-12-19T06:46:44.743Z,823.79
2022-12-19T06:47:50.689Z,796.78
2022-12-19T06:48:58.864Z,769.48
2022-12-19T06:50:04.987Z,762.94
2022-12-19T06:51:08.783Z,772.67
2022-12-19T06:52:15.647Z,794.31
2022-12-19T06:53:21.812Z,806.07
2022-12-19T06:54:31.709Z,772.57
2022-12-19T06:55:37.559Z,782.44
2022-12-19T06:56:46.582Z,786.30
2022-12-19T06:57:49.901Z,759.61
2022-12-19T06:58:57.064Z,761.73
2022-12-19T07:00:03.897Z,762.32
2022-12-19T07:01:07.419Z,746.84
2022-12-19T07:02:31.550Z,778.22
2022-12-19T07:03:41.567Z,769.30
2022-12-19T07:04:54.652Z,800.29
2022-12-19T07:05:58.941Z,807.49
2022-12-19T07:07:05.167Z,781.62
2022-12-19T07:08:14.071Z,799.43
2022-12-19T07:09:17.829Z,778.49
2022-12-19T07:10:26.586Z,752.81
2022-12-19T07:11:30.782Z,744.67
2022-12-19T07:12:36.681Z,752.98
2022-12-19T07:13:40.110Z,745.90
2022-12-19T07:14:51.701Z,763.27
2022-12-19T07:16:07.291Z,773.54
2022-12-19T07:17:16.553Z,794.58
2022-12-19T07:18:20.045Z,786.17
2022-12-19T07:19:29.160Z,777.43
2022-12-19T07:20:44.877Z,761.28
2022-12-19T07:21:52.469Z,730.09
2022-12-19T07:22:56.918Z,729.48
2022-12-19T07:24:04.289Z,724.79
2022-12-19T07:25:10.054Z,718.08
2022-12-19T07:26:18.655Z,714.64
2022-12-19T07:27:28.563Z,726.78
2022-12-19T07:28:44.725Z,703.51
2022-12-19T07:29:50.688Z,708.34
2022-12-19T07:30:54.311Z,728.92
2022-12-19T07:32:00.398Z,728.65
2022-12-19T07:33:08.916Z,731.56
2022-12-19T07:34:19.259Z,745.07
2022-12-19T07:35:24.616Z,747.44
2022-12-19T07:36:30.884Z,760.90
2022-12-19T07:37:36.967Z,752.68
2022-12-19T07:38:40.294Z,765.45
2022-12-19T07:39:47.145Z,750.55
2022-12-19T07:40:53.311Z,782.82
2022-12-19T07:42:02.180Z,781.87
2022-12-19T07:43:17.596Z,788.40
2022-12-19T07:44:23.785Z,794.47
2022-12-19T07:45:31.081Z,763.77
2022-12-19T07:46:37.211Z,779.01
2022-12-19T07:47:40.589Z,769.92
2022-12-19T07:48:46.763Z,764.04
2022-12-19T07:49:50.272Z,790.17
2022-12-19T07:50:57.507Z,778.79
2022-12-19T07:52:03.931Z,778.12
2022-12-19T07:53:09.932Z,797.98
2022-12-19T07:54:18.045Z,791.57
2022-12-19T07:55:24.199Z,773.45
2022-12-19T07:56:28.987Z,781.22
2022-12-19T07:57:37.659Z,750.09
2022-12-19T07:58:41.116Z,737.07
2022-12-19T07:59:47.289Z,744.62
2022-12-19T08:00:58.770Z,723.07
2022-12-19T08:02:03.561Z,732.21
2022-12-19T08:03:09.723Z,732.70
2022-12-19T08:04:13.936Z,716.14
2022-12-19T08:05:20.470Z,717.55
2022-12-19T08:06:24.912Z,716.89
2022-12-19T08:07:31.727Z,710.74
2022-12-19T08:08:38.586Z,717.76
2022-12-19T08:09:44.496Z,716.77
2022-12-19T08:10:47.860Z,734.00
2022-12-19T08:11:53.688Z,725.91
2022-12-19T08:13:03.073Z,762.45
2022-12-19T08:14:06.542Z,794.17
2022-12-19T08:15:13.704Z,814.04
2022-12-19T08:16:19.810Z,816.19
2022-12-19T08:17:26.519Z,808.42
2022-12-19T08:18:33.494Z,785.22
2022-12-19T08:19:39.536Z,775.14
2022-12-19T08:20:49.523Z,766.84
2022-12-19T08:21:55.537Z,760.21
2022-12-19T08:23:01.574Z,759.20
2022-12-19T08:24:07.161Z,749.68
2022-12-19T08:25:13.661Z,739.10
2022-12-19T08:26:25.576Z,721.38
2022-12-19T08:27:31.828Z,690.12
2022-12-19T08:28:40.925Z,700.11
2022-12-19T08:29:48.158Z,691.00
2022-12-19T08:30:54.368Z,704.52
2022-12-19T08:32:00.453Z,710.82
2022-12-19T08:33:07.026Z,768.39
2022-12-19T08:34:10.630Z,800.90
2022-12-19T08:35:17.560Z,813.79
2022-12-19T08:36:21.998Z,824.13
2022-12-19T08:37:29.924Z,794.81
2022-12-19T08:38:33.261Z,759.97
2022-12-19T08:39:39.367Z,741.52
2022-12-19T08:40:47.661Z,722.21
2022-12-19T08:41:53.723Z,709.03
2022-12-19T08:42:58.282Z,719.12
2022-12-19T08:44:07.358Z,744.37
2022-12-19T08:45:13.914Z,737.14
2022-12-19T08:46:21.808Z,700.28
2022-12-19T08:47:27.967Z,696.08
2022-12-19T08:48:36.156Z,701.74
2022-12-19T08:49:42.424Z,744.18
2022-12-19T08:50:54.626Z,752.70
2022-12-19T08:52:01.581Z,726.69
2022-12-19T08:53:08.366Z,719.55
2022-12-19T08:54:15.548Z,728.94
2022-12-19T08:55:21.672Z,713.92
2022-12-19T08:56:27.773Z,709.03
2022-12-19T08:57:34.741Z,715.55
2022-12-19T08:58:40.712Z,718.51
2022-12-19T08:59:51.420Z,712.77
2022-12-19T09:01:05.263Z,731.75
2022-12-19T09:02:15.289Z,719.83
2022-12-19T09:03:22.710Z,733.53
2022-12-19T09:06:01.889Z,714.23
2022-12-19T09:06:07.095Z,716.62
2022-12-19T09:07:16.217Z,679.99
2022-12-19T09:08:23.168Z,665.83
2022-12-19T09:09:29.569Z,662.11
2022-12-19T09:10:38.649Z,677.02
2022-12-19T09:11:48.141Z,679.56
2022-12-19T09:12:58.039Z,705.59
2022-12-19T09:14:05.312Z,690.10
2022-12-19T09:15:14.385Z,695.65
2022-12-19T09:16:24.101Z,700.62
2022-12-19T09:17:31.422Z,699.52
2022-12-19T09:18:39.858Z,677.81
2022-12-19T09:19:48.535Z,702.66
2022-12-19T09:20:57.920Z,694.48
2022-12-19T09:22:04.088Z,690.86
2022-12-19T09:23:10.145Z,686.97
2022-12-19T09:24:16.120Z,707.87
2022-12-19T09:25:22.861Z,710.05
2022-12-19T09:26:33.683Z,707.86
2022-12-19T09:28:17.390Z,704.29
2022-12-19T09:29:21.109Z,705.87
2022-12-19T09:30:32.080Z,705.64
2022-12-19T09:31:40.552Z,700.84
2022-12-19T09:32:48.109Z,686.29
2022-12-19T09:33:55.026Z,695.76
2022-12-19T09:35:00.948Z,687.92
2022-12-19T09:36:11.849Z,683.17
2022-12-19T09:37:18.110Z,679.82
2022-12-19T09:38:23.549Z,700.52
2022-12-19T09:39:29.531Z,720.87
2022-12-19T09:40:58.219Z,737.73
2022-12-19T09:42:59.342Z,928.37
2022-12-19T09:44:26.377Z,933.99
2022-12-19T09:45:55.751Z,959.14
2022-12-19T09:47:06.446Z,886.89
2022-12-19T09:48:23.811Z,843.42
2022-12-19T09:49:41.647Z,806.20
2022-12-19T09:51:10.400Z,802.01
2022-12-19T09:52:25.005Z,823.44
2022-12-19T09:53:54.288Z,823.02
2022-12-19T09:55:16.822Z,850.32
2022-12-19T09:56:29.174Z,873.63
2022-12-19T09:57:47.448Z,921.88
2022-12-19T09:59:07.855Z,886.05
2022-12-19T10:00:21.674Z,870.29
2022-12-19T10:01:42.452Z,852.66
2022-12-19T10:02:59.578Z,814.21
2022-12-19T10:04:18.644Z,797.13
2022-12-19T10:06:24.927Z,806.39
2022-12-19T10:07:18.250Z,794.46
2022-12-19T10:08:47.691Z,788.04
2022-12-19T10:12:34.499Z,745.53
2022-12-19T10:12:45.179Z,757.12
2022-12-19T10:13:37.364Z,733.89
2022-12-19T10:15:03.398Z,724.72
2022-12-19T10:16:22.523Z,714.19
2022-12-19T10:18:01.130Z,692.38
2022-12-19T10:19:12.293Z,694.96
2022-12-19T10:20:32.785Z,685.69
2022-12-19T10:22:17.805Z,699.86
2022-12-19T10:24:19.035Z,674.83
2022-12-19T10:25:57.702Z,695.32
2022-12-19T10:27:16.346Z,665.27
2022-12-19T10:28:58.622Z,661.70
2022-12-19T10:30:17.309Z,653.01
2022-12-19T10:31:35.991Z,660.20
2022-12-19T10:33:07.085Z,655.99
2022-12-19T10:34:25.394Z,666.59
2022-12-19T10:35:37.723Z,665.32
2022-12-19T10:38:34.329Z,670.70
2022-12-19T10:40:00.650Z,713.26
2022-12-19T10:41:19.881Z,684.41
2022-12-19T10:42:39.577Z,707.94
2022-12-19T10:44:06.108Z,705.86
2022-12-19T10:45:19.689Z,679.88
2022-12-19T10:46:41.136Z,703.55
2022-12-19T10:47:50.887Z,718.93
2022-12-19T10:48:57.914Z,741.06
2022-12-19T10:50:09.222Z,793.50
2022-12-19T10:51:25.936Z,808.76
2022-12-19T10:52:57.002Z,795.47
2022-12-19T10:54:04.349Z,817.31
2022-12-19T10:55:40.782Z,771.28
2022-12-19T10:56:46.933Z,836.45
2022-12-19T10:57:50.200Z,830.73
2022-12-19T10:58:59.133Z,881.86
2022-12-19T11:00:20.385Z,886.03
2022-12-19T11:01:30.362Z,866.19
2022-12-19T11:02:51.966Z,860.10
2022-12-19T11:04:25.357Z,831.95
2022-12-19T11:05:47.366Z,814.94
2022-12-19T11:07:20.762Z,828.35
2022-12-19T11:08:31.053Z,832.53
2022-12-19T11:09:46.775Z,832.92
2022-12-19T11:13:15.490Z,805.23
2022-12-19T11:17:15.807Z,799.03
2022-12-19T11:18:47.125Z,797.75
2022-12-19T11:20:24.717Z,803.85
2022-12-19T11:27:46.450Z,795.58
2022-12-19T11:28:15.652Z,829.26
2022-12-19T11:29:25.414Z,791.92
2022-12-19T11:29:30.352Z,811.31
2022-12-19T11:29:37.047Z,793.49
2022-12-19T11:30:46.255Z,811.07
2022-12-19T11:30:47.658Z,795.75
2022-12-19T11:31:27.998Z,808.75
2022-12-19T11:31:46.584Z,801.96
2022-12-19T11:32:42.298Z,806.09
2022-12-19T11:33:50.764Z,806.03
2022-12-19T11:35:05.489Z,786.62
2022-12-19T11:36:31.856Z,803.42
2022-12-19T11:37:53.886Z,823.65
2022-12-19T11:39:03.408Z,809.63
2022-12-19T11:40:22.360Z,809.07
2022-12-19T11:41:43.943Z,817.59
2022-12-19T11:43:42.089Z,814.87
2022-12-19T11:44:39.310Z,818.44
2022-12-19T11:46:01.549Z,816.38
2022-12-19T11:47:27.899Z,824.41
2022-12-19T11:48:44.256Z,841.86
2022-12-19T11:50:06.302Z,870.63
2022-12-19T11:51:30.137Z,883.84
2022-12-19T11:53:03.964Z,892.02
2022-12-19T11:54:23.677Z,875.04
2022-12-19T11:55:45.168Z,861.54
2022-12-19T11:56:52.259Z,868.22
2022-12-19T11:57:58.917Z,848.12
2022-12-19T11:59:18.173Z,832.09
2022-12-19T12:00:28.840Z,848.83
2022-12-19T12:02:02.628Z,840.30
2022-12-19T12:03:49.534Z,848.89
2022-12-19T12:05:44.914Z,838.19
2022-12-19T12:06:57.785Z,857.81
2022-12-19T12:10:14.470Z,827.88
2022-12-19T12:13:43.574Z,859.01
2022-12-19T12:22:35.653Z,862.75
2022-12-19T12:22:42.147Z,850.87
2022-12-19T12:26:51.559Z,858.07
2022-12-19T12:30:46.866Z,863.82
2022-12-19T12:31:10.063Z,887.05
2022-12-19T12:31:14.691Z,880.58
2022-12-19T12:31:17.766Z,887.50
2022-12-19T12:31:44.385Z,876.73
2022-12-19T12:31:44.393Z,921.91
2022-12-19T12:32:03.005Z,924.16
2022-12-19T12:32:03.523Z,853.17
2022-12-19T12:35:13.681Z,905.57
2022-12-19T12:35:40.781Z,889.45
2022-12-19T12:39:07.212Z,924.49
2022-12-19T12:41:01.470Z,928.32
2022-12-19T12:42:33.796Z,963.67
2022-12-19T12:44:07.996Z,1000.92
2022-12-19T12:45:26.213Z,1011.78
2022-12-19T12:46:42.236Z,1037.07
2022-12-19T12:47:55.050Z,1031.55
2022-12-19T12:49:04.823Z,1026.34
2022-12-19T12:50:20.236Z,1033.37
2022-12-19T12:51:30.100Z,1059.55
2022-12-19T12:52:46.161Z,1074.32
2022-12-19T12:54:07.881Z,1085.79
2022-12-19T12:55:27.660Z,1065.30
2022-12-19T12:56:35.626Z,1152.66
2022-12-19T12:57:42.268Z,1162.53
2022-12-19T12:59:24.140Z,1099.90
2022-12-19T13:00:33.997Z,1093.67
2022-12-19T13:01:41.424Z,1069.78
2022-12-19T13:02:53.620Z,1094.39
2022-12-19T13:04:05.168Z,1085.26
2022-12-19T13:05:39.947Z,1091.11
2022-12-19T13:07:30.334Z,1090.33
2022-12-19T13:08:50.640Z,1112.28
2022-12-19T13:10:20.055Z,1099.02
2022-12-19T13:11:56.302Z,1112.27
2022-12-19T13:13:14.972Z,1103.56
2022-12-19T13:14:51.827Z,1134.73
2022-12-19T13:15:57.874Z,1125.01
2022-12-19T13:17:05.745Z,1129.23
2022-12-19T13:18:42.353Z,1195.29
2022-12-19T13:19:56.891Z,1178.81
2022-12-19T13:21:06.851Z,1194.22
2022-12-19T13:22:42.539Z,1216.14
2022-12-19T13:23:52.550Z,1226.71
2022-12-19T13:25:01.539Z,1242.70
2022-12-19T13:26:26.208Z,1219.87
2022-12-19T13:27:42.825Z,1185.79
2022-12-19T13:28:47.103Z,1108.87
2022-12-19T13:30:08.214Z,1131.42
2022-12-19T13:31:26.473Z,1158.43
2022-12-19T13:32:58.078Z,1219.08
2022-12-19T13:34:22.377Z,1163.75
2022-12-19T13:37:42.407Z,1191.63
2022-12-19T13:39:59.352Z,1143.69
2022-12-19T13:39:59.625Z,1094.94
2022-12-19T13:40:37.375Z,1087.39
2022-12-19T13:41:58.430Z,1111.80
2022-12-19T13:43:33.635Z,1175.84
2022-12-19T13:44:45.404Z,1250.80
2022-12-19T13:45:57.367Z,1216.87
2022-12-19T13:47:03.562Z,1237.41
2022-12-19T13:48:23.898Z,1334.39
2022-12-19T13:49:36.592Z,1391.39
2022-12-19T13:50:43.588Z,1354.20
2022-12-19T13:51:57.225Z,1313.46
2022-12-19T13:53:03.777Z,1290.33
2022-12-19T13:54:29.168Z,1282.14
2022-12-19T13:55:43.032Z,1249.45
2022-12-19T13:56:49.839Z,1217.94
2022-12-19T13:58:00.604Z,1225.63
2022-12-19T13:59:09.025Z,1201.39
2022-12-19T14:00:24.559Z,1245.53
2022-12-19T14:01:32.194Z,1212.11
2022-12-19T14:02:51.850Z,1207.17
2022-12-19T14:04:02.649Z,1217.04
2022-12-19T14:06:14.308Z,1235.78
2022-12-19T14:07:04.301Z,1239.54
2022-12-19T14:08:18.218Z,1217.94
2022-12-19T14:11:28.720Z,1255.75
2022-12-19T14:11:33.971Z,1388.14
2022-12-19T14:13:43.271Z,1416.21
2022-12-19T14:14:33.416Z,1410.91
2022-12-19T14:15:42.571Z,1384.13
2022-12-19T14:16:49.953Z,1377.81
2022-12-19T14:17:56.073Z,1367.90
2022-12-19T14:19:30.189Z,1369.58
2022-12-19T14:22:11.380Z,1336.54
2022-12-19T14:22:20.713Z,1327.22
2022-12-19T14:23:42.889Z,1306.11
2022-12-19T14:25:52.368Z,1326.89
2022-12-19T14:28:23.444Z,1328.82
2022-12-19T14:28:24.713Z,1269.90
2022-12-19T14:30:28.908Z,1326.06
2022-12-19T14:31:20.592Z,1312.85
2022-12-19T14:33:44.566Z,1339.17
2022-12-19T14:34:27.088Z,1351.15
2022-12-19T14:36:06.398Z,1362.88
2022-12-19T14:37:03.533Z,1446.60
2022-12-19T14:39:20.703Z,1486.08
2022-12-19T14:39:44.129Z,1563.33
2022-12-19T14:41:07.387Z,1448.27
2022-12-19T14:43:39.465Z,1401.87
2022-12-19T14:52:11.526Z,1267.39
2022-12-19T14:52:50.878Z,1344.21
2022-12-19T14:53:52.730Z,1430.96
2022-12-19T14:54:01.422Z,1443.96
2022-12-19T14:54:23.043Z,1485.91
2022-12-19T14:54:25.523Z,1458.66
2022-12-19T14:54:37.733Z,1524.05
2022-12-19T14:56:16.054Z,1481.10
2022-12-19T14:57:03.914Z,1463.28
2022-12-19T14:58:53.315Z,1399.92
2022-12-19T14:59:46.362Z,1354.40
2022-12-19T15:01:09.286Z,1342.08
2022-12-19T15:02:30.642Z,1331.99
2022-12-19T15:04:50.555Z,1353.47
2022-12-19T15:05:24.276Z,1338.59
2022-12-19T15:07:07.863Z,1365.22
2022-12-19T15:08:04.457Z,1339.00
2022-12-19T15:10:58.387Z,1352.48
2022-12-19T15:11:05.268Z,1324.28
2022-12-19T15:14:48.564Z,1531.26
2022-12-19T15:14:56.319Z,1610.17
2022-12-19T15:15:46.303Z,1610.15
2022-12-19T15:17:06.162Z,1628.34
2022-12-19T15:18:28.897Z,1665.32
2022-12-19T15:19:35.375Z,1596.95
2022-12-19T15:20:42.131Z,1509.21
2022-12-19T15:21:49.508Z,1445.05
2022-12-19T15:22:55.582Z,1302.82
2022-12-19T15:24:02.526Z,1295.60
2022-12-19T15:25:17.516Z,1422.71
2022-12-19T15:26:49.133Z,1493.07
2022-12-19T15:27:58.330Z,1408.77